createdAt,value
2019-04-29T00:00:55.144Z,20.04
2019-04-29T00:01:55.233Z,20.07
2019-04-29T00:02:55.210Z,20.07
2019-04-29T00:03:55.239Z,20.00
2019-04-29T00:04:55.277Z,19.90
2019-04-29T00:05:55.367Z,19.90
2019-04-29T00:06:55.382Z,19.89
2019-04-29T00:07:55.713Z,19.85
2019-04-29T00:08:55.393Z,19.76
2019-04-29T00:09:55.502Z,19.78
2019-04-29T00:10:55.619Z,19.71
2019-04-29T00:11:55.535Z,19.72
2019-04-29T00:12:55.521Z,19.76
2019-04-29T00:13:55.544Z,19.72
2019-04-29T00:14:55.880Z,19.62
2019-04-29T00:15:55.606Z,19.61
2019-04-29T00:16:55.715Z,19.49
2019-04-29T00:17:55.721Z,19.50
2019-04-29T00:18:55.762Z,19.55
2019-04-29T00:20:55.771Z,19.50
2019-04-29T00:21:56.148Z,19.57
2019-04-29T00:22:55.877Z,19.50
2019-04-29T00:24:03.585Z,19.42
2019-04-29T00:24:55.909Z,19.40
2019-04-29T00:25:55.918Z,19.39
2019-04-29T00:26:55.998Z,19.35
2019-04-29T00:27:55.974Z,19.42
2019-04-29T00:28:56.363Z,19.38
2019-04-29T00:29:56.191Z,19.31
2019-04-29T00:30:56.117Z,19.31
2019-04-29T00:31:56.176Z,19.30
2019-04-29T00:32:56.129Z,19.28
2019-04-29T00:33:56.162Z,19.24
2019-04-29T00:34:56.240Z,19.16
2019-04-29T00:35:56.373Z,19.24
2019-04-29T00:36:56.303Z,19.16
2019-04-29T00:37:56.338Z,19.12
2019-04-29T00:38:56.316Z,19.13
2019-04-29T00:39:56.343Z,19.21
2019-04-29T00:40:56.372Z,19.09
2019-04-29T00:41:57.051Z,19.13
2019-04-29T00:42:56.492Z,19.10
2019-04-29T00:43:56.522Z,19.06
2019-04-29T00:44:56.546Z,19.01
2019-04-29T00:45:56.677Z,18.99
2019-04-29T00:46:56.611Z,19.09
2019-04-29T00:48:56.667Z,18.94
2019-04-29T00:49:56.713Z,18.93
2019-04-29T00:50:56.734Z,18.89
2019-04-29T00:51:56.711Z,18.90
2019-04-29T00:52:56.887Z,18.93
2019-04-29T00:54:56.849Z,18.86
2019-04-29T00:55:56.890Z,18.82
2019-04-29T00:56:56.912Z,18.89
2019-04-29T00:57:56.944Z,18.86
2019-04-29T00:58:57.074Z,18.84
2019-04-29T00:59:57.299Z,18.89
2019-04-29T01:00:57.026Z,18.75
2019-04-29T01:01:57.072Z,18.75
2019-04-29T01:02:57.106Z,18.78
2019-04-29T01:03:57.221Z,18.79
2019-04-29T01:04:57.103Z,18.82
2019-04-29T01:05:57.179Z,18.75
2019-04-29T01:06:57.812Z,18.74
2019-04-29T01:07:57.657Z,18.74
2019-04-29T01:08:57.245Z,18.74
2019-04-29T01:09:57.253Z,18.69
2019-04-29T01:10:57.292Z,18.69
2019-04-29T01:11:57.357Z,18.66
2019-04-29T01:12:57.395Z,18.66
2019-04-29T01:13:57.381Z,18.64
2019-04-29T01:14:57.456Z,18.65
2019-04-29T01:15:57.435Z,18.65
2019-04-29T01:16:57.516Z,18.62
2019-04-29T01:17:57.494Z,18.59
2019-04-29T01:18:57.571Z,18.59
2019-04-29T01:19:57.915Z,18.50
2019-04-29T01:20:57.733Z,18.50
2019-04-29T01:21:57.661Z,18.49
2019-04-29T01:22:57.647Z,18.47
2019-04-29T01:23:57.773Z,18.54
2019-04-29T01:24:57.759Z,18.50
2019-04-29T01:25:57.889Z,18.59
2019-04-29T01:26:58.108Z,18.56
2019-04-29T01:27:57.844Z,18.47
2019-04-29T01:28:57.873Z,18.47
2019-04-29T01:29:57.901Z,18.44
2019-04-29T01:30:57.932Z,18.44
2019-04-29T01:31:58.088Z,18.53
2019-04-29T01:32:57.990Z,18.39
2019-04-29T01:33:58.325Z,18.46
2019-04-29T01:34:58.051Z,18.39
2019-04-29T01:35:58.094Z,18.42
2019-04-29T01:36:58.063Z,18.46
2019-04-29T01:37:58.089Z,18.39
2019-04-29T01:38:58.164Z,18.41
2019-04-29T01:39:58.196Z,18.41
2019-04-29T01:41:58.206Z,18.32
2019-04-29T01:42:58.240Z,18.41
2019-04-29T01:43:58.314Z,18.47
2019-04-29T01:44:58.296Z,18.32
2019-04-29T01:45:58.326Z,18.31
2019-04-29T01:46:58.527Z,18.31
2019-04-29T01:47:58.735Z,18.28
2019-04-29T01:48:58.466Z,18.32
2019-04-29T01:49:58.456Z,18.31
2019-04-29T01:50:58.825Z,18.29
2019-04-29T01:51:58.526Z,18.28
2019-04-29T01:52:58.547Z,18.28
2019-04-29T01:53:58.628Z,18.25
2019-04-29T01:54:58.948Z,18.28
2019-04-29T01:55:58.635Z,18.28
2019-04-29T01:56:58.707Z,18.25
2019-04-29T01:57:58.734Z,18.25
2019-04-29T01:58:58.719Z,18.21
2019-04-29T01:59:58.789Z,18.21
2019-04-29T02:00:58.816Z,18.26
2019-04-29T02:01:59.152Z,18.20
2019-04-29T02:02:58.882Z,18.16
2019-04-29T02:03:58.911Z,18.19
2019-04-29T02:04:58.934Z,18.11
2019-04-29T02:05:59.014Z,18.19
2019-04-29T02:07:59.128Z,18.13
2019-04-29T02:08:59.306Z,18.11
2019-04-29T02:09:59.087Z,18.02
2019-04-29T02:10:59.131Z,18.11
2019-04-29T02:11:59.113Z,18.11
2019-04-29T02:12:59.176Z,18.04
2019-04-29T02:14:59.179Z,18.04
2019-04-29T02:15:59.669Z,17.95
2019-04-29T02:16:59.287Z,18.09
2019-04-29T02:17:59.319Z,17.98
2019-04-29T02:18:59.354Z,17.98
2019-04-29T02:19:59.375Z,18.01
2019-04-29T02:20:59.360Z,17.96
2019-04-29T02:21:59.395Z,17.95
2019-04-29T02:22:59.486Z,17.99
2019-04-29T02:23:59.516Z,17.96
2019-04-29T02:25:59.563Z,17.94
2019-04-29T02:26:59.592Z,17.95
2019-04-29T02:27:59.915Z,17.87
2019-04-29T02:28:59.640Z,17.80
2019-04-29T02:29:59.618Z,17.84
2019-04-29T02:30:59.723Z,17.81
2019-04-29T02:31:59.835Z,17.80
2019-04-29T02:32:59.725Z,17.87
2019-04-29T02:33:59.798Z,17.80
2019-04-29T02:34:59.852Z,17.83
2019-04-29T02:35:59.961Z,17.70
2019-04-29T02:36:59.834Z,17.73
2019-04-29T02:37:59.879Z,17.73
2019-04-29T02:39:00.002Z,17.71
2019-04-29T02:40:00.281Z,17.76
2019-04-29T02:40:59.995Z,17.70
2019-04-29T02:41:59.979Z,17.74
2019-04-29T02:43:00.071Z,17.74
2019-04-29T02:44:00.558Z,17.74
2019-04-29T02:45:00.118Z,17.73
2019-04-29T02:46:00.196Z,17.74
2019-04-29T02:48:00.504Z,17.68
2019-04-29T02:49:00.275Z,17.73
2019-04-29T02:51:00.251Z,17.74
2019-04-29T02:52:00.328Z,17.74
2019-04-29T02:53:00.349Z,17.74
2019-04-29T02:54:00.379Z,17.70
2019-04-29T02:55:00.702Z,17.74
2019-04-29T02:56:00.444Z,17.68
2019-04-29T02:57:00.465Z,17.77
2019-04-29T02:58:00.495Z,17.71
2019-04-29T02:59:00.519Z,17.71
2019-04-29T03:00:00.549Z,17.73
2019-04-29T03:01:00.537Z,17.71
2019-04-29T03:02:00.907Z,17.70
2019-04-29T03:03:00.635Z,17.68
2019-04-29T03:04:00.618Z,17.66
2019-04-29T03:05:00.646Z,17.65
2019-04-29T03:06:00.729Z,17.68
2019-04-29T03:07:00.707Z,17.70
2019-04-29T03:08:00.737Z,17.65
2019-04-29T03:09:01.140Z,17.63
2019-04-29T03:10:00.851Z,17.71
2019-04-29T03:11:00.835Z,17.74
2019-04-29T03:12:01.854Z,17.60
2019-04-29T03:13:00.878Z,17.58
2019-04-29T03:14:00.956Z,17.66
2019-04-29T03:15:00.999Z,17.65
2019-04-29T03:16:01.326Z,17.63
2019-04-29T03:17:01.094Z,17.60
2019-04-29T03:18:01.035Z,17.57
2019-04-29T03:19:01.066Z,17.60
2019-04-29T03:20:01.129Z,17.62
2019-04-29T03:21:01.492Z,17.65
2019-04-29T03:22:01.232Z,17.57
2019-04-29T03:23:01.528Z,17.62
2019-04-29T03:24:01.225Z,17.58
2019-04-29T03:27:01.351Z,17.40
2019-04-29T03:28:01.318Z,17.40
2019-04-29T03:29:01.413Z,17.38
2019-04-29T03:30:01.684Z,17.43
2019-04-29T03:31:01.568Z,17.38
2019-04-29T03:32:01.521Z,17.43
2019-04-29T03:33:01.816Z,17.42
2019-04-29T03:34:01.517Z,17.36
2019-04-29T03:35:01.575Z,17.40
2019-04-29T03:36:01.624Z,17.39
2019-04-29T03:37:01.932Z,17.40
2019-04-29T03:38:01.673Z,17.39
2019-04-29T03:39:01.729Z,17.39
2019-04-29T03:40:01.719Z,17.39
2019-04-29T03:41:01.690Z,17.42
2019-04-29T03:42:01.779Z,17.43
2019-04-29T03:43:01.822Z,17.32
2019-04-29T03:44:02.255Z,17.27
2019-04-29T03:45:01.906Z,17.30
2019-04-29T03:46:01.839Z,17.24
2019-04-29T03:47:01.930Z,17.24
2019-04-29T03:48:01.948Z,17.22
2019-04-29T03:49:01.923Z,17.24
2019-04-29T03:50:02.007Z,17.27
2019-04-29T03:51:02.106Z,17.24
2019-04-29T03:52:02.060Z,17.18
2019-04-29T03:54:02.144Z,17.24
2019-04-29T03:55:02.121Z,17.30
2019-04-29T03:56:02.175Z,17.25
2019-04-29T03:57:02.576Z,17.30
2019-04-29T03:59:02.218Z,17.17
2019-04-29T04:00:02.294Z,17.27
2019-04-29T04:01:02.341Z,17.21
2019-04-29T04:02:02.355Z,17.27
2019-04-29T04:03:02.629Z,17.27
2019-04-29T04:05:02.385Z,17.21
2019-04-29T04:06:02.471Z,17.21
2019-04-29T04:07:04.216Z,17.22
2019-04-29T04:08:02.478Z,17.36
2019-04-29T04:09:05.869Z,17.28
2019-04-29T04:10:02.536Z,17.30
2019-04-29T04:11:02.617Z,17.38
2019-04-29T04:12:02.639Z,17.25
2019-04-29T04:13:02.619Z,17.25
2019-04-29T04:14:02.653Z,17.25
2019-04-29T04:15:02.677Z,17.21
2019-04-29T04:16:02.762Z,17.32
2019-04-29T04:17:02.730Z,17.28
2019-04-29T04:18:02.923Z,17.22
2019-04-29T04:20:02.840Z,17.25
2019-04-29T04:21:03.220Z,17.27
2019-04-29T04:22:02.954Z,17.25
2019-04-29T04:24:02.939Z,17.20
2019-04-29T04:25:02.958Z,17.21
2019-04-29T04:26:03.035Z,17.25
2019-04-29T04:27:03.091Z,17.25
2019-04-29T04:28:03.357Z,17.20
2019-04-29T04:30:03.109Z,17.24
2019-04-29T04:31:06.784Z,17.25
2019-04-29T04:32:03.225Z,17.25
2019-04-29T04:34:03.282Z,17.27
2019-04-29T04:35:03.604Z,17.20
2019-04-29T04:36:03.285Z,17.30
2019-04-29T04:38:03.388Z,17.25
2019-04-29T04:39:03.425Z,17.20
2019-04-29T04:40:03.389Z,17.28
2019-04-29T04:41:03.445Z,17.24
2019-04-29T04:42:03.813Z,17.25
2019-04-29T04:43:03.477Z,17.28
2019-04-29T04:44:03.512Z,17.21
2019-04-29T04:45:03.623Z,17.20
2019-04-29T04:46:03.623Z,17.35
2019-04-29T04:47:03.646Z,17.15
2019-04-29T04:48:03.667Z,17.35
2019-04-29T04:49:03.963Z,17.30
2019-04-29T04:50:03.688Z,17.20
2019-04-29T04:51:03.790Z,17.25
2019-04-29T04:53:03.827Z,17.20
2019-04-29T04:54:03.850Z,17.21
2019-04-29T04:55:03.885Z,17.30
2019-04-29T04:56:04.215Z,17.21
2019-04-29T04:57:03.899Z,17.39
2019-04-29T04:58:03.990Z,17.21
2019-04-29T05:00:03.965Z,17.39
2019-04-29T05:01:03.997Z,17.21
2019-04-29T05:02:04.335Z,17.33
2019-04-29T05:03:04.105Z,17.30
2019-04-29T05:04:04.135Z,17.27
2019-04-29T05:05:04.112Z,17.32
2019-04-29T05:06:04.154Z,17.22
2019-04-29T05:07:04.227Z,17.22
2019-04-29T05:08:04.511Z,17.22
2019-04-29T05:10:04.314Z,17.24
2019-04-29T05:11:04.293Z,17.24
2019-04-29T05:12:04.322Z,17.30
2019-04-29T05:13:04.344Z,17.32
2019-04-29T05:14:04.684Z,17.28
2019-04-29T05:15:04.449Z,17.28
2019-04-29T05:16:04.520Z,17.27
2019-04-29T05:17:04.472Z,17.33
2019-04-29T05:18:04.534Z,17.45
2019-04-29T05:19:04.572Z,17.40
2019-04-29T05:20:04.546Z,17.45
2019-04-29T05:21:04.926Z,17.32
2019-04-29T05:22:04.609Z,17.38
2019-04-29T05:23:04.638Z,17.40
2019-04-29T05:25:04.740Z,17.42
2019-04-29T05:26:04.795Z,17.46
2019-04-29T05:27:04.805Z,17.46
2019-04-29T05:28:05.085Z,17.40
2019-04-29T05:29:04.886Z,17.40
2019-04-29T05:30:04.851Z,17.53
2019-04-29T05:31:04.919Z,17.46
2019-04-29T05:32:04.953Z,17.43
2019-04-29T05:33:04.940Z,17.46
2019-04-29T05:34:04.997Z,17.46
2019-04-29T05:35:05.362Z,17.47
2019-04-29T05:36:05.065Z,17.53
2019-04-29T05:37:05.040Z,17.49
2019-04-29T05:38:05.121Z,17.47
2019-04-29T05:40:05.122Z,17.47
2019-04-29T05:41:05.204Z,17.47
2019-04-29T05:42:07.716Z,17.47
2019-04-29T05:43:05.305Z,17.46
2019-04-29T05:44:05.243Z,17.42
2019-04-29T05:45:05.273Z,17.49
2019-04-29T05:46:07.360Z,17.49
2019-04-29T05:47:05.382Z,17.55
2019-04-29T05:48:05.711Z,17.63
2019-04-29T05:49:07.205Z,17.68
2019-04-29T05:50:06.607Z,17.70
2019-04-29T05:51:05.503Z,17.76
2019-04-29T05:53:05.565Z,17.81
2019-04-29T05:54:05.561Z,17.84
2019-04-29T05:55:09.434Z,17.96
2019-04-29T05:56:05.608Z,17.98
2019-04-29T05:57:05.924Z,18.01
2019-04-29T05:58:05.771Z,17.98
2019-04-29T05:59:08.502Z,18.11
2019-04-29T06:00:05.763Z,18.11
2019-04-29T06:01:05.743Z,18.13
2019-04-29T06:02:05.775Z,18.14
2019-04-29T06:03:05.799Z,18.28
2019-04-29T06:04:05.979Z,18.26
2019-04-29T06:05:05.863Z,18.32
2019-04-29T06:06:05.884Z,18.31
2019-04-29T06:07:05.972Z,18.46
2019-04-29T06:08:06.008Z,18.41
2019-04-29T06:09:06.033Z,18.44
2019-04-29T06:10:06.055Z,18.49
2019-04-29T06:11:06.095Z,18.47
2019-04-29T06:12:06.113Z,18.54
2019-04-29T06:13:06.102Z,18.50
2019-04-29T06:14:06.175Z,18.59
2019-04-29T06:15:06.208Z,18.62
2019-04-29T06:16:06.247Z,18.64
2019-04-29T06:17:07.794Z,18.68
2019-04-29T06:18:06.254Z,18.62
2019-04-29T06:19:06.329Z,18.64
2019-04-29T06:20:06.337Z,18.72
2019-04-29T06:21:09.328Z,18.71
2019-04-29T06:22:06.375Z,18.75
2019-04-29T06:23:06.442Z,18.79
2019-04-29T06:24:06.494Z,18.79
2019-04-29T06:25:06.810Z,18.79
2019-04-29T06:26:06.578Z,18.79
2019-04-29T06:27:06.569Z,18.78
2019-04-29T06:28:06.589Z,18.86
2019-04-29T06:29:06.583Z,18.86
2019-04-29T06:30:06.609Z,18.86
2019-04-29T06:31:06.639Z,18.89
2019-04-29T06:32:06.728Z,18.97
2019-04-29T06:33:06.737Z,18.89
2019-04-29T06:34:06.736Z,18.96
2019-04-29T06:35:10.652Z,18.89
2019-04-29T06:36:06.832Z,18.87
2019-04-29T06:37:06.837Z,18.97
2019-04-29T06:38:08.803Z,18.94
2019-04-29T06:39:08.014Z,19.01
2019-04-29T06:40:07.349Z,19.07
2019-04-29T06:41:09.726Z,19.05
2019-04-29T06:42:07.021Z,19.06
2019-04-29T06:43:07.146Z,18.99
2019-04-29T06:44:15.841Z,19.15
2019-04-29T06:45:07.514Z,19.09
2019-04-29T06:47:07.167Z,19.06
2019-04-29T06:48:07.149Z,19.06
2019-04-29T06:49:10.410Z,19.13
2019-04-29T06:50:07.234Z,19.20
2019-04-29T06:51:07.291Z,19.13
2019-04-29T06:52:07.266Z,19.17
2019-04-29T06:53:07.301Z,19.20
2019-04-29T06:54:07.382Z,19.16
2019-04-29T06:56:09.158Z,19.24
2019-04-29T06:57:07.527Z,19.25
2019-04-29T06:58:07.506Z,19.28
2019-04-29T06:59:11.920Z,19.30
2019-04-29T07:01:07.598Z,19.34
2019-04-29T07:02:09.484Z,19.34
2019-04-29T07:03:08.000Z,19.32
2019-04-29T07:04:07.637Z,19.30
2019-04-29T07:05:07.667Z,19.35
2019-04-29T07:06:07.780Z,19.39
2019-04-29T07:08:07.804Z,19.47
2019-04-29T07:09:07.787Z,19.47
2019-04-29T07:10:07.822Z,19.46
2019-04-29T07:11:07.982Z,19.42
2019-04-29T07:15:12.189Z,19.50
2019-04-29T07:16:08.050Z,19.50
2019-04-29T07:17:08.080Z,19.52
2019-04-29T07:18:08.124Z,19.53
2019-04-29T07:19:08.312Z,19.57
2019-04-29T07:20:08.123Z,19.57
2019-04-29T07:21:12.008Z,19.60
2019-04-29T07:22:08.500Z,19.53
2019-04-29T07:23:08.270Z,19.60
2019-04-29T07:24:08.321Z,19.61
2019-04-29T07:25:08.301Z,19.57
2019-04-29T07:26:08.528Z,19.61
2019-04-29T07:27:08.402Z,19.68
2019-04-29T07:28:08.796Z,19.71
2019-04-29T07:29:08.461Z,19.71
2019-04-29T07:31:10.312Z,19.67
2019-04-29T07:34:08.687Z,19.78
2019-04-29T07:35:09.938Z,19.76
2019-04-29T07:36:11.349Z,19.82
2019-04-29T07:37:08.703Z,19.76
2019-04-29T07:38:09.829Z,19.71
2019-04-29T07:39:08.761Z,19.83
2019-04-29T07:40:09.313Z,19.78
2019-04-29T07:41:10.049Z,19.78
2019-04-29T07:42:08.809Z,19.75
2019-04-29T07:44:08.919Z,19.86
2019-04-29T07:45:08.907Z,19.78
2019-04-29T07:46:08.927Z,19.80
2019-04-29T07:47:09.010Z,19.82
2019-04-29T07:48:09.022Z,19.86
2019-04-29T07:49:12.721Z,19.87
2019-04-29T07:50:09.135Z,19.83
2019-04-29T07:51:09.134Z,19.90
2019-04-29T07:52:09.816Z,19.87
2019-04-29T07:53:09.161Z,19.90
2019-04-29T07:54:11.008Z,19.95
2019-04-29T07:55:09.218Z,19.92
2019-04-29T07:56:09.290Z,19.95
2019-04-29T07:57:12.435Z,19.94
2019-04-29T07:58:09.302Z,19.87
2019-04-29T07:59:11.365Z,19.90
2019-04-29T08:00:12.919Z,19.90
2019-04-29T08:01:09.406Z,19.97
2019-04-29T08:02:09.478Z,19.94
2019-04-29T08:03:09.466Z,19.94
2019-04-29T08:04:09.508Z,19.97
2019-04-29T08:05:09.524Z,20.10
2019-04-29T08:06:09.803Z,20.04
2019-04-29T08:07:09.631Z,20.10
2019-04-29T08:08:09.667Z,20.02
2019-04-29T08:09:09.832Z,20.05
2019-04-29T08:10:22.779Z,20.12
2019-04-29T08:11:09.775Z,20.12
2019-04-29T08:12:10.041Z,20.04
2019-04-29T08:13:09.881Z,20.10
2019-04-29T08:14:09.800Z,20.10
2019-04-29T08:15:09.893Z,20.15
2019-04-29T08:16:12.612Z,20.12
2019-04-29T08:17:09.899Z,20.15
2019-04-29T08:18:11.262Z,20.17
2019-04-29T08:19:10.009Z,20.17
2019-04-29T08:20:10.042Z,20.23
2019-04-29T08:21:10.266Z,20.23
2019-04-29T08:22:10.102Z,20.17
2019-04-29T08:23:10.086Z,20.17
2019-04-29T08:24:11.639Z,20.20
2019-04-29T08:25:10.141Z,20.12
2019-04-29T08:26:10.182Z,20.16
2019-04-29T08:27:10.299Z,20.15
2019-04-29T08:28:10.239Z,20.25
2019-04-29T08:29:10.321Z,20.20
2019-04-29T08:30:11.475Z,20.20
2019-04-29T08:31:10.336Z,20.23
2019-04-29T08:32:10.365Z,20.25
2019-04-29T08:33:12.082Z,20.23
2019-04-29T08:34:10.481Z,20.31
2019-04-29T08:35:10.466Z,20.22
2019-04-29T08:36:10.797Z,20.34
2019-04-29T08:37:10.574Z,20.33
2019-04-29T08:38:10.608Z,20.33
2019-04-29T08:39:10.592Z,20.31
2019-04-29T08:40:16.447Z,20.35
2019-04-29T08:41:10.700Z,20.34
2019-04-29T08:42:10.785Z,20.38
2019-04-29T08:43:11.010Z,20.40
2019-04-29T08:44:16.130Z,20.34
2019-04-29T08:45:10.817Z,20.31
2019-04-29T08:47:10.884Z,20.40
2019-04-29T08:48:10.923Z,20.40
2019-04-29T08:49:13.133Z,20.41
2019-04-29T08:50:10.981Z,20.38
2019-04-29T08:51:11.369Z,20.41
2019-04-29T08:52:10.998Z,20.44
2019-04-29T08:54:11.063Z,20.50
2019-04-29T08:55:11.136Z,20.50
2019-04-29T08:56:12.077Z,20.46
2019-04-29T08:57:11.149Z,20.38
2019-04-29T08:58:12.858Z,20.46
2019-04-29T08:59:11.212Z,20.50
2019-04-29T09:00:11.299Z,20.51
2019-04-29T09:01:11.290Z,20.46
2019-04-29T09:02:11.665Z,20.44
2019-04-29T09:03:11.390Z,20.53
2019-04-29T09:04:11.430Z,20.44
2019-04-29T09:05:13.163Z,20.44
2019-04-29T09:06:11.440Z,20.46
2019-04-29T09:07:12.669Z,20.53
2019-04-29T09:08:13.442Z,20.58
2019-04-29T09:09:28.114Z,20.60
2019-04-29T09:10:11.563Z,20.58
2019-04-29T09:11:13.003Z,20.57
2019-04-29T09:12:11.678Z,20.60
2019-04-29T09:13:11.662Z,20.56
2019-04-29T09:14:13.026Z,20.63
2019-04-29T09:15:11.720Z,20.60
2019-04-29T09:16:11.755Z,20.66
2019-04-29T09:17:20.115Z,20.61
2019-04-29T09:18:11.822Z,20.56
2019-04-29T09:19:11.891Z,20.66
2019-04-29T09:20:12.334Z,20.63
2019-04-29T09:21:11.960Z,20.61
2019-04-29T09:22:11.940Z,20.64
2019-04-29T09:23:12.023Z,20.69
2019-04-29T09:24:12.060Z,20.73
2019-04-29T09:25:12.040Z,20.60
2019-04-29T09:26:12.076Z,20.64
2019-04-29T09:27:12.464Z,20.68
2019-04-29T09:28:16.263Z,20.69
2019-04-29T09:29:12.222Z,20.79
2019-04-29T09:30:12.201Z,20.78
2019-04-29T09:31:12.310Z,20.72
2019-04-29T09:32:12.315Z,20.78
2019-04-29T09:33:13.039Z,20.78
2019-04-29T09:34:12.779Z,20.81
2019-04-29T09:35:12.406Z,20.79
2019-04-29T09:36:13.848Z,20.82
2019-04-29T09:37:12.483Z,20.81
2019-04-29T09:38:12.456Z,20.78
2019-04-29T09:40:12.522Z,20.85
2019-04-29T09:41:12.843Z,20.83
2019-04-29T09:42:13.302Z,20.83
2019-04-29T09:46:12.762Z,20.83
2019-04-29T09:47:12.742Z,20.82
2019-04-29T09:48:12.787Z,20.93
2019-04-29T09:49:12.798Z,20.96
2019-04-29T09:50:12.885Z,20.83
2019-04-29T09:51:17.717Z,20.97
2019-04-29T09:52:12.904Z,21.01
2019-04-29T09:53:13.000Z,20.88
2019-04-29T09:54:14.532Z,20.98
2019-04-29T09:55:13.053Z,20.94
2019-04-29T09:56:13.088Z,20.96
2019-04-29T09:57:13.116Z,20.97
2019-04-29T09:58:13.107Z,20.97
2019-04-29T09:59:13.165Z,21.05
2019-04-29T10:00:13.200Z,21.03
2019-04-29T10:01:13.724Z,21.09
2019-04-29T10:03:13.303Z,21.06
2019-04-29T10:04:13.405Z,21.01
2019-04-29T10:05:13.332Z,21.08
2019-04-29T10:07:13.433Z,21.05
2019-04-29T10:08:13.463Z,21.09
2019-04-29T10:10:13.479Z,21.16
2019-04-29T10:11:13.560Z,21.11
2019-04-29T10:12:13.906Z,21.21
2019-04-29T10:14:13.664Z,21.12
2019-04-29T10:15:13.715Z,21.15
2019-04-29T10:16:13.728Z,21.26
2019-04-29T10:18:13.750Z,21.19
2019-04-29T10:19:13.814Z,21.18
2019-04-29T10:20:13.849Z,21.19
2019-04-29T10:21:16.523Z,21.15
2019-04-29T10:22:13.869Z,21.21
2019-04-29T10:23:13.955Z,21.22
2019-04-29T10:25:14.318Z,21.26
2019-04-29T10:27:14.030Z,21.28
2019-04-29T10:28:14.108Z,21.31
2019-04-29T10:29:18.606Z,21.33
2019-04-29T10:30:14.120Z,21.34
2019-04-29T10:31:14.211Z,21.27
2019-04-29T10:32:14.252Z,21.31
2019-04-29T10:33:17.659Z,21.33
2019-04-29T10:34:14.276Z,21.38
2019-04-29T10:35:14.287Z,21.37
2019-04-29T10:36:16.073Z,21.43
2019-04-29T10:37:14.405Z,21.37
2019-04-29T10:38:14.446Z,21.36
2019-04-29T10:39:14.421Z,21.37
2019-04-29T10:40:14.455Z,21.40
2019-04-29T10:41:14.542Z,21.36
2019-04-29T10:42:14.514Z,21.43
2019-04-29T10:43:15.393Z,21.43
2019-04-29T10:44:14.789Z,21.46
2019-04-29T10:45:14.675Z,21.45
2019-04-29T10:46:14.695Z,21.48
2019-04-29T10:48:14.714Z,21.48
2019-04-29T10:49:14.743Z,21.40
2019-04-29T10:50:15.511Z,21.45
2019-04-29T10:51:14.819Z,21.51
2019-04-29T10:52:14.919Z,21.56
2019-04-29T10:53:15.473Z,21.59
2019-04-29T10:55:15.003Z,21.53
2019-04-29T10:56:15.300Z,21.55
2019-04-29T10:57:15.930Z,21.53
2019-04-29T10:58:15.041Z,21.53
2019-04-29T10:59:15.129Z,21.52
2019-04-29T11:00:16.899Z,21.58
2019-04-29T11:01:15.195Z,21.55
2019-04-29T11:02:15.949Z,21.64
2019-04-29T11:03:15.205Z,21.63
2019-04-29T11:04:15.235Z,21.58
2019-04-29T11:05:15.345Z,21.63
2019-04-29T11:06:16.315Z,21.63
2019-04-29T11:07:19.190Z,21.59
2019-04-29T11:08:15.378Z,21.64
2019-04-29T11:09:16.131Z,21.71
2019-04-29T11:10:24.920Z,21.73
2019-04-29T11:11:22.634Z,21.66
2019-04-29T11:12:15.503Z,21.67
2019-04-29T11:13:15.539Z,21.70
2019-04-29T11:14:15.630Z,21.71
2019-04-29T11:15:15.613Z,21.81
2019-04-29T11:16:15.747Z,21.73
2019-04-29T11:17:16.733Z,21.70
2019-04-29T11:18:18.124Z,21.70
2019-04-29T11:19:15.791Z,21.70
2019-04-29T11:20:18.515Z,21.70
2019-04-29T11:21:15.886Z,21.71
2019-04-29T11:22:16.242Z,21.74
2019-04-29T11:23:18.083Z,21.74
2019-04-29T11:24:15.954Z,21.70
2019-04-29T11:25:16.026Z,21.77
2019-04-29T11:26:16.046Z,21.81
2019-04-29T11:27:16.124Z,21.66
2019-04-29T11:28:17.620Z,21.89
2019-04-29T11:29:16.430Z,21.85
2019-04-29T11:30:16.112Z,21.86
2019-04-29T11:31:19.089Z,21.86
2019-04-29T11:32:16.220Z,21.86
2019-04-29T11:33:16.258Z,21.82
2019-04-29T11:34:18.032Z,21.83
2019-04-29T11:35:16.274Z,21.81
2019-04-29T11:36:16.404Z,21.89
2019-04-29T11:37:17.862Z,21.85
2019-04-29T11:38:16.373Z,21.90
2019-04-29T11:39:16.399Z,21.85
2019-04-29T11:40:16.454Z,21.94
2019-04-29T11:41:19.687Z,21.83
2019-04-29T11:42:16.548Z,21.94
2019-04-29T11:43:17.286Z,21.96
2019-04-29T11:44:16.629Z,22.01
2019-04-29T11:45:16.650Z,21.93
2019-04-29T11:46:16.635Z,21.91
2019-04-29T11:47:20.976Z,21.86
2019-04-29T11:49:16.777Z,21.94
2019-04-29T11:50:16.839Z,21.94
2019-04-29T11:51:16.857Z,21.93
2019-04-29T11:52:16.843Z,21.91
2019-04-29T11:54:18.208Z,21.91
2019-04-29T11:55:18.621Z,21.99
2019-04-29T11:56:17.039Z,21.96
2019-04-29T11:57:17.222Z,21.98
2019-04-29T11:58:17.101Z,21.98
2019-04-29T11:59:17.162Z,22.02
2019-04-29T12:00:17.166Z,21.99
2019-04-29T12:01:17.435Z,22.08
2019-04-29T12:02:17.169Z,22.08
2019-04-29T12:03:19.004Z,22.06
2019-04-29T12:05:17.318Z,22.02
2019-04-29T12:06:20.811Z,22.08
2019-04-29T12:07:17.339Z,22.09
2019-04-29T12:08:18.461Z,22.06
2019-04-29T12:09:17.431Z,22.08
2019-04-29T12:10:17.503Z,22.02
2019-04-29T12:11:17.535Z,22.04
2019-04-29T12:12:17.501Z,22.04
2019-04-29T12:13:18.945Z,22.08
2019-04-29T12:14:17.571Z,22.06
2019-04-29T12:15:17.952Z,22.08
2019-04-29T12:16:19.764Z,22.09
2019-04-29T12:17:17.731Z,22.14
2019-04-29T12:18:17.714Z,22.09
2019-04-29T12:19:21.317Z,22.09
2019-04-29T12:20:17.781Z,22.11
2019-04-29T12:21:17.837Z,22.15
2019-04-29T12:22:28.176Z,22.19
2019-04-29T12:23:17.924Z,22.20
2019-04-29T12:24:17.963Z,22.17
2019-04-29T12:25:18.007Z,22.23
2019-04-29T12:26:18.123Z,22.14
2019-04-29T12:27:19.819Z,22.23
2019-04-29T12:28:19.351Z,22.21
2019-04-29T12:29:19.482Z,22.20
2019-04-29T12:30:18.215Z,22.21
2019-04-29T12:31:18.197Z,22.17
2019-04-29T12:32:20.568Z,22.24
2019-04-29T12:33:18.268Z,22.24
2019-04-29T12:34:18.248Z,22.21
2019-04-29T12:35:21.712Z,22.23
2019-04-29T12:36:18.416Z,22.31
2019-04-29T12:37:18.401Z,22.27
2019-04-29T12:38:18.471Z,22.27
2019-04-29T12:39:21.584Z,22.33
2019-04-29T12:40:18.501Z,22.31
2019-04-29T12:41:21.014Z,22.24
2019-04-29T12:42:18.519Z,22.29
2019-04-29T12:43:18.606Z,22.31
2019-04-29T12:44:18.595Z,22.29
2019-04-29T12:45:19.812Z,22.33
2019-04-29T12:46:18.656Z,22.33
2019-04-29T12:47:26.349Z,22.24
2019-04-29T12:48:25.078Z,22.33
2019-04-29T12:49:18.754Z,22.33
2019-04-29T12:50:21.590Z,22.44
2019-04-29T12:51:18.871Z,22.36
2019-04-29T12:52:18.974Z,22.42
2019-04-29T12:53:18.912Z,22.36
2019-04-29T12:54:18.933Z,22.39
2019-04-29T12:55:21.912Z,22.33
2019-04-29T12:56:19.028Z,22.38
2019-04-29T12:57:23.669Z,22.44
2019-04-29T12:58:23.818Z,22.45
2019-04-29T12:59:19.402Z,22.44
2019-04-29T13:00:19.185Z,22.49
2019-04-29T13:01:19.279Z,22.45
2019-04-29T13:02:19.976Z,22.42
2019-04-29T13:03:19.298Z,22.48
2019-04-29T13:04:19.481Z,22.49
2019-04-29T13:05:19.351Z,22.52
2019-04-29T13:06:23.903Z,22.41
2019-04-29T13:07:19.428Z,22.49
2019-04-29T13:08:19.461Z,22.52
2019-04-29T13:09:19.449Z,22.52
2019-04-29T13:10:19.479Z,22.59
2019-04-29T13:11:20.923Z,22.64
2019-04-29T13:12:20.152Z,22.59
2019-04-29T13:13:20.632Z,22.57
2019-04-29T13:14:19.629Z,22.57
2019-04-29T13:15:19.703Z,22.56
2019-04-29T13:16:20.609Z,22.49
2019-04-29T13:17:19.721Z,22.59
2019-04-29T13:20:19.826Z,22.52
2019-04-29T13:21:20.204Z,22.57
2019-04-29T13:22:19.896Z,22.54
2019-04-29T13:23:33.218Z,22.51
2019-04-29T13:25:20.872Z,22.56
2019-04-29T13:26:27.840Z,22.64
2019-04-29T13:27:20.777Z,22.57
2019-04-29T13:28:29.832Z,22.59
2019-04-29T13:29:27.459Z,22.67
2019-04-29T13:30:20.217Z,22.64
2019-04-29T13:31:20.421Z,22.67
2019-04-29T13:32:20.616Z,22.67
2019-04-29T13:33:20.327Z,22.70
2019-04-29T13:34:24.629Z,22.72
2019-04-29T13:35:20.398Z,22.66
2019-04-29T13:36:25.976Z,22.66
2019-04-29T13:37:20.597Z,22.66
2019-04-29T13:38:20.511Z,22.72
2019-04-29T13:39:38.122Z,22.63
2019-04-29T13:40:20.507Z,22.64
2019-04-29T13:41:24.287Z,22.67
2019-04-29T13:42:20.890Z,22.70
2019-04-29T13:43:25.768Z,22.74
2019-04-29T13:44:21.287Z,22.84
2019-04-29T13:45:24.871Z,22.82
2019-04-29T13:46:20.719Z,22.84
2019-04-29T13:47:28.389Z,22.91
2019-04-29T13:48:21.003Z,22.94
2019-04-29T13:49:20.821Z,22.94
2019-04-29T13:50:38.229Z,23.03